sensor_id;sensor_type;location;lat;lon;timestamp;pressure;altitude;pressure_sealevel;temperature;humidity
77118;BME280;66072;50.238;19.228;2023-04-02T00:08:55;97426.33;;;7.58;90.65
77118;BME280;66072;50.238;19.228;2023-04-02T00:11:31;97429.06;;;7.57;90.74
77118;BME280;66072;50.238;19.228;2023-04-02T00:14:00;97430.76;;;7.58;90.75
77118;BME280;66072;50.238;19.228;2023-04-02T00:16:28;97432.10;;;7.58;90.82
77118;BME280;66072;50.238;19.228;2023-04-02T00:19:01;97431.76;;;7.58;90.96
77118;BME280;66072;50.238;19.228;2023-04-02T00:21:35;97433.23;;;7.59;90.87
77118;BME280;66072;50.238;19.228;2023-04-02T00:24:13;97431.98;;;7.60;90.81
77118;BME280;66072;50.238;19.228;2023-04-02T00:26:49;97433.66;;;7.60;90.85
77118;BME280;66072;50.238;19.228;2023-04-02T00:29:18;97431.94;;;7.61;90.67
77118;BME280;66072;50.238;19.228;2023-04-02T00:31:48;97430.91;;;7.61;90.93
77118;BME280;66072;50.238;19.228;2023-04-02T00:34:27;97430.72;;;7.62;90.87
77118;BME280;66072;50.238;19.228;2023-04-02T00:36:57;97432.90;;;7.62;91.00
77118;BME280;66072;50.238;19.228;2023-04-02T00:39:28;97433.73;;;7.63;90.92
77118;BME280;66072;50.238;19.228;2023-04-02T00:41:57;97434.96;;;7.62;90.90
77118;BME280;66072;50.238;19.228;2023-04-02T00:44:27;97436.29;;;7.62;90.87
77118;BME280;66072;50.238;19.228;2023-04-02T00:46:54;97438.19;;;7.62;90.88
77118;BME280;66072;50.238;19.228;2023-04-02T00:49:35;97438.89;;;7.61;90.91
77118;BME280;66072;50.238;19.228;2023-04-02T00:52:08;97436.35;;;7.61;90.86
77118;BME280;66072;50.238;19.228;2023-04-02T00:54:48;97440.42;;;7.61;91.00
77118;BME280;66072;50.238;19.228;2023-04-02T00:57:20;97440.29;;;7.61;91.07
77118;BME280;66072;50.238;19.228;2023-04-02T01:00:01;97439.24;;;7.61;90.95
77118;BME280;66072;50.238;19.228;2023-04-02T01:02:37;97441.64;;;7.61;91.02
77118;BME280;66072;50.238;19.228;2023-04-02T01:13:38;97453.97;;;7.59;91.01
77118;BME280;66072;50.238;19.228;2023-04-02T01:24:13;97455.75;;;7.58;91.08
77118;BME280;66072;50.238;19.228;2023-04-02T01:27:01;97455.73;;;7.58;91.11
77118;BME280;66072;50.238;19.228;2023-04-02T01:29:36;97458.77;;;7.59;91.21
77118;BME280;66072;50.238;19.228;2023-04-02T01:32:08;97458.60;;;7.59;91.10
77118;BME280;66072;50.238;19.228;2023-04-02T01:34:37;97456.73;;;7.58;91.16
77118;BME280;66072;50.238;19.228;2023-04-02T01:42:30;97459.20;;;7.57;91.11
77118;BME280;66072;50.238;19.228;2023-04-02T01:45:04;97464.00;;;7.56;91.17
77118;BME280;66072;50.238;19.228;2023-04-02T01:47:34;97462.29;;;7.57;91.29
77118;BME280;66072;50.238;19.228;2023-04-02T01:50:28;97463.82;;;7.57;91.20
77118;BME280;66072;50.238;19.228;2023-04-02T01:52:59;97462.90;;;7.54;91.08
77118;BME280;66072;50.238;19.228;2023-04-02T01:55:45;97463.41;;;7.54;91.13
77118;BME280;66072;50.238;19.228;2023-04-02T01:58:37;97467.73;;;7.52;91.05
77118;BME280;66072;50.238;19.228;2023-04-02T02:01:07;97464.92;;;7.51;90.97
77118;BME280;66072;50.238;19.228;2023-04-02T02:03:41;97466.30;;;7.51;91.06
77118;BME280;66072;50.238;19.228;2023-04-02T02:06:12;97466.85;;;7.50;90.99
77118;BME280;66072;50.238;19.228;2023-04-02T02:08:46;97469.40;;;7.50;90.90
77118;BME280;66072;50.238;19.228;2023-04-02T02:11:19;97472.17;;;7.49;90.84
77118;BME280;66072;50.238;19.228;2023-04-02T02:13:54;97471.37;;;7.48;90.83
77118;BME280;66072;50.238;19.228;2023-04-02T02:16:23;97472.23;;;7.47;90.78
77118;BME280;66072;50.238;19.228;2023-04-02T02:18:54;97472.16;;;7.46;90.78
77118;BME280;66072;50.238;19.228;2023-04-02T02:24:00;97475.30;;;7.44;90.74
77118;BME280;66072;50.238;19.228;2023-04-02T02:26:30;97476.73;;;7.43;90.63
77118;BME280;66072;50.238;19.228;2023-04-02T02:29:00;97477.80;;;7.42;90.57
77118;BME280;66072;50.238;19.228;2023-04-02T02:31:30;97477.84;;;7.41;90.57
77118;BME280;66072;50.238;19.228;2023-04-02T02:34:02;97481.33;;;7.39;90.47
77118;BME280;66072;50.238;19.228;2023-04-02T02:36:51;97485.65;;;7.38;90.54
77118;BME280;66072;50.238;19.228;2023-04-02T02:39:30;97489.10;;;7.37;90.51
77118;BME280;66072;50.238;19.228;2023-04-02T02:42:29;97491.52;;;7.36;90.51
77118;BME280;66072;50.238;19.228;2023-04-02T02:45:01;97494.18;;;7.34;90.59
77118;BME280;66072;50.238;19.228;2023-04-02T02:47:33;97495.36;;;7.31;90.47
77118;BME280;66072;50.238;19.228;2023-04-02T02:50:06;97499.36;;;7.29;90.49
77118;BME280;66072;50.238;19.228;2023-04-02T02:52:36;97504.07;;;7.27;90.51
77118;BME280;66072;50.238;19.228;2023-04-02T02:55:14;97504.75;;;7.23;90.65
77118;BME280;66072;50.238;19.228;2023-04-02T02:57:47;97505.87;;;7.21;90.65
77118;BME280;66072;50.238;19.228;2023-04-02T03:00:16;97507.16;;;7.19;90.67
77118;BME280;66072;50.238;19.228;2023-04-02T03:02:45;97508.80;;;7.17;90.71
77118;BME280;66072;50.238;19.228;2023-04-02T03:05:18;97513.11;;;7.16;90.83
77118;BME280;66072;50.238;19.228;2023-04-02T03:07:50;97508.23;;;7.15;90.83
77118;BME280;66072;50.238;19.228;2023-04-02T03:13:42;97497.95;;;7.13;90.91
77118;BME280;66072;50.238;19.228;2023-04-02T03:16:35;97506.12;;;7.13;90.98
77118;BME280;66072;50.238;19.228;2023-04-02T03:19:11;97507.98;;;7.13;90.86
77118;BME280;66072;50.238;19.228;2023-04-02T03:21:50;97508.00;;;7.12;90.87
77118;BME280;66072;50.238;19.228;2023-04-02T03:26:59;97515.25;;;7.10;90.71
77118;BME280;66072;50.238;19.228;2023-04-02T03:29:31;97513.29;;;7.09;90.71
77118;BME280;66072;50.238;19.228;2023-04-02T03:34:39;97526.18;;;7.06;90.82
77118;BME280;66072;50.238;19.228;2023-04-02T03:37:21;97524.71;;;7.05;90.71
77118;BME280;66072;50.238;19.228;2023-04-02T03:40:09;97524.61;;;7.03;90.84
77118;BME280;66072;50.238;19.228;2023-04-02T03:42:45;97528.55;;;7.02;90.72
77118;BME280;66072;50.238;19.228;2023-04-02T03:45:31;97530.31;;;7.01;90.68
77118;BME280;66072;50.238;19.228;2023-04-02T03:48:08;97535.45;;;7.00;90.78
77118;BME280;66072;50.238;19.228;2023-04-02T03:50:54;97533.77;;;6.99;90.75
77118;BME280;66072;50.238;19.228;2023-04-02T03:53:24;97537.00;;;6.99;90.79
77118;BME280;66072;50.238;19.228;2023-04-02T03:55:54;97543.48;;;6.99;90.73
77118;BME280;66072;50.238;19.228;2023-04-02T03:58:27;97547.05;;;6.99;90.67
77118;BME280;66072;50.238;19.228;2023-04-02T04:01:17;97550.88;;;6.97;90.65
77118;BME280;66072;50.238;19.228;2023-04-02T04:03:49;97548.91;;;6.96;90.64
77118;BME280;66072;50.238;19.228;2023-04-02T04:06:25;97555.95;;;6.94;90.60
77118;BME280;66072;50.238;19.228;2023-04-02T04:09:00;97553.27;;;6.93;90.73
77118;BME280;66072;50.238;19.228;2023-04-02T04:11:35;97560.95;;;6.92;90.64
77118;BME280;66072;50.238;19.228;2023-04-02T04:14:30;97563.18;;;6.92;90.66
77118;BME280;66072;50.238;19.228;2023-04-02T04:19:39;97562.91;;;6.91;90.90
77118;BME280;66072;50.238;19.228;2023-04-02T04:22:18;97567.47;;;6.91;90.88
77118;BME280;66072;50.238;19.228;2023-04-02T04:24:48;97572.40;;;6.91;90.93
77118;BME280;66072;50.238;19.228;2023-04-02T04:28:37;97572.90;;;6.91;90.94
77118;BME280;66072;50.238;19.228;2023-04-02T04:33:16;97581.17;;;6.92;90.96
77118;BME280;66072;50.238;19.228;2023-04-02T04:35:52;97581.30;;;6.93;91.04
77118;BME280;66072;50.238;19.228;2023-04-02T04:38:37;97580.44;;;6.94;90.99
77118;BME280;66072;50.238;19.228;2023-04-02T04:41:20;97583.80;;;6.95;90.95
77118;BME280;66072;50.238;19.228;2023-04-02T04:43:58;97585.25;;;6.96;90.89
77118;BME280;66072;50.238;19.228;2023-04-02T04:46:37;97589.75;;;6.98;90.84
77118;BME280;66072;50.238;19.228;2023-04-02T04:49:25;97591.40;;;6.99;90.91
77118;BME280;66072;50.238;19.228;2023-04-02T04:51:54;97593.38;;;7.01;90.71
77118;BME280;66072;50.238;19.228;2023-04-02T04:54:25;97593.92;;;7.00;90.88
77118;BME280;66072;50.238;19.228;2023-04-02T04:56:56;97596.08;;;7.02;90.96
77118;BME280;66072;50.238;19.228;2023-04-02T04:59:32;97592.45;;;7.03;90.74
77118;BME280;66072;50.238;19.228;2023-04-02T05:02:07;97597.18;;;7.03;90.77
77118;BME280;66072;50.238;19.228;2023-04-02T05:04:42;97597.48;;;7.04;90.88
77118;BME280;66072;50.238;19.228;2023-04-02T05:07:27;97604.88;;;7.06;90.87
77118;BME280;66072;50.238;19.228;2023-04-02T05:10:18;97607.20;;;7.08;90.65
77118;BME280;66072;50.238;19.228;2023-04-02T05:12:58;97608.00;;;7.08;90.77
77118;BME280;66072;50.238;19.228;2023-04-02T05:15:32;97614.69;;;7.11;90.71
77118;BME280;66072;50.238;19.228;2023-04-02T05:18:22;97616.85;;;7.12;90.61
77118;BME280;66072;50.238;19.228;2023-04-02T05:20:59;97621.04;;;7.13;90.46
77118;BME280;66072;50.238;19.228;2023-04-02T05:23:29;97621.84;;;7.14;90.40
77118;BME280;66072;50.238;19.228;2023-04-02T05:28:55;97633.61;;;7.17;90.40
77118;BME280;66072;50.238;19.228;2023-04-02T05:31:36;97632.02;;;7.19;90.43
77118;BME280;66072;50.238;19.228;2023-04-02T05:34:05;97635.02;;;7.20;90.39
77118;BME280;66072;50.238;19.228;2023-04-02T05:36:33;97638.52;;;7.21;90.35
77118;BME280;66072;50.238;19.228;2023-04-02T05:39:01;97642.86;;;7.23;90.53
77118;BME280;66072;50.238;19.228;2023-04-02T05:41:32;97642.17;;;7.23;90.40
77118;BME280;66072;50.238;19.228;2023-04-02T05:46:50;97649.50;;;7.19;90.52
77118;BME280;66072;50.238;19.228;2023-04-02T05:49:34;97651.11;;;7.13;90.35
77118;BME280;66072;50.238;19.228;2023-04-02T05:52:11;97654.73;;;7.05;90.32
77118;BME280;66072;50.238;19.228;2023-04-02T05:57:43;97656.98;;;6.89;90.45
77118;BME280;66072;50.238;19.228;2023-04-02T06:03:12;97671.38;;;6.75;90.83
77118;BME280;66072;50.238;19.228;2023-04-02T06:05:44;97674.66;;;6.66;90.88
77118;BME280;66072;50.238;19.228;2023-04-02T06:08:22;97681.78;;;6.58;91.13
77118;BME280;66072;50.238;19.228;2023-04-02T06:11:09;97684.25;;;6.49;91.01
77118;BME280;66072;50.238;19.228;2023-04-02T06:13:38;97690.98;;;6.38;90.63
77118;BME280;66072;50.238;19.228;2023-04-02T06:16:06;97691.66;;;6.29;90.60
77118;BME280;66072;50.238;19.228;2023-04-02T06:18:34;97692.05;;;6.24;90.68
77118;BME280;66072;50.238;19.228;2023-04-02T06:21:03;97697.55;;;6.19;90.53
77118;BME280;66072;50.238;19.228;2023-04-02T06:23:57;97704.56;;;6.13;90.45
77118;BME280;66072;50.238;19.228;2023-04-02T06:26:35;97714.80;;;6.08;90.33
77118;BME280;66072;50.238;19.228;2023-04-02T06:29:10;97722.30;;;6.03;90.08
77118;BME280;66072;50.238;19.228;2023-04-02T06:31:45;97725.20;;;5.94;89.74
77118;BME280;66072;50.238;19.228;2023-04-02T06:34:20;97736.50;;;5.87;89.41
77118;BME280;66072;50.238;19.228;2023-04-02T06:36:50;97742.98;;;5.77;89.25
77118;BME280;66072;50.238;19.228;2023-04-02T06:39:21;97747.11;;;5.72;89.26
77118;BME280;66072;50.238;19.228;2023-04-02T06:42:03;97752.11;;;5.65;88.98
77118;BME280;66072;50.238;19.228;2023-04-02T06:44:34;97758.52;;;5.52;88.98
77118;BME280;66072;50.238;19.228;2023-04-02T06:47:15;97764.91;;;5.40;88.90
77118;BME280;66072;50.238;19.228;2023-04-02T06:49:48;97765.89;;;5.32;89.16
77118;BME280;66072;50.238;19.228;2023-04-02T06:52:24;97773.86;;;5.27;89.08
77118;BME280;66072;50.238;19.228;2023-04-02T06:54:53;97778.89;;;5.29;88.93
77118;BME280;66072;50.238;19.228;2023-04-02T06:57:21;97784.27;;;5.34;88.59
77118;BME280;66072;50.238;19.228;2023-04-02T06:59:49;97785.99;;;5.38;88.29
77118;BME280;66072;50.238;19.228;2023-04-02T07:02:23;97790.19;;;5.40;88.49
77118;BME280;66072;50.238;19.228;2023-04-02T07:04:57;97795.70;;;5.43;88.22
77118;BME280;66072;50.238;19.228;2023-04-02T07:07:26;97799.88;;;5.39;87.67
77118;BME280;66072;50.238;19.228;2023-04-02T07:09:54;97807.88;;;5.33;87.98
77118;BME280;66072;50.238;19.228;2023-04-02T07:12:23;97812.83;;;5.28;88.28
77118;BME280;66072;50.238;19.228;2023-04-02T07:14:51;97823.73;;;5.22;88.15
77118;BME280;66072;50.238;19.228;2023-04-02T07:17:19;97823.84;;;5.09;87.81
77118;BME280;66072;50.238;19.228;2023-04-02T07:19:47;97828.85;;;4.97;88.05
77118;BME280;66072;50.238;19.228;2023-04-02T07:22:17;97839.34;;;4.87;88.45
77118;BME280;66072;50.238;19.228;2023-04-02T07:24:45;97840.56;;;4.75;88.11
77118;BME280;66072;50.238;19.228;2023-04-02T07:27:13;97848.89;;;4.65;87.97
77118;BME280;66072;50.238;19.228;2023-04-02T07:29:41;97854.73;;;4.51;87.92
77118;BME280;66072;50.238;19.228;2023-04-02T07:32:10;97855.26;;;4.41;88.37
77118;BME280;66072;50.238;19.228;2023-04-02T07:34:39;97858.38;;;4.33;88.49
77118;BME280;66072;50.238;19.228;2023-04-02T07:37:10;97859.43;;;4.26;88.73
77118;BME280;66072;50.238;19.228;2023-04-02T07:39:39;97862.90;;;4.23;89.24
77118;BME280;66072;50.238;19.228;2023-04-02T07:42:07;97863.91;;;4.23;89.48
77118;BME280;66072;50.238;19.228;2023-04-02T07:44:35;97872.87;;;4.23;89.73
77118;BME280;66072;50.238;19.228;2023-04-02T07:47:02;97878.54;;;4.26;89.54
77118;BME280;66072;50.238;19.228;2023-04-02T07:49:30;97882.73;;;4.28;89.44
77118;BME280;66072;50.238;19.228;2023-04-02T07:51:58;97887.92;;;4.29;89.56
77118;BME280;66072;50.238;19.228;2023-04-02T07:54:25;97891.45;;;4.30;89.39
77118;BME280;66072;50.238;19.228;2023-04-02T07:56:53;97897.25;;;4.35;89.44
77118;BME280;66072;50.238;19.228;2023-04-02T07:59:21;97901.05;;;4.38;89.36
77118;BME280;66072;50.238;19.228;2023-04-02T08:01:51;97907.36;;;4.42;89.14
77118;BME280;66072;50.238;19.228;2023-04-02T08:04:20;97910.18;;;4.44;89.10
77118;BME280;66072;50.238;19.228;2023-04-02T08:06:49;97915.61;;;4.49;89.23
77118;BME280;66072;50.238;19.228;2023-04-02T08:09:16;97918.69;;;4.53;88.84
77118;BME280;66072;50.238;19.228;2023-04-02T08:11:44;97925.77;;;4.54;88.77
77118;BME280;66072;50.238;19.228;2023-04-02T08:14:12;97929.21;;;4.58;88.65
77118;BME280;66072;50.238;19.228;2023-04-02T08:16:51;97936.75;;;4.61;88.62
77118;BME280;66072;50.238;19.228;2023-04-02T08:19:19;97942.35;;;4.66;88.57
77118;BME280;66072;50.238;19.228;2023-04-02T08:21:48;97944.89;;;4.71;88.65
77118;BME280;66072;50.238;19.228;2023-04-02T08:24:16;97948.34;;;4.75;87.87
77118;BME280;66072;50.238;19.228;2023-04-02T08:26:45;97956.71;;;4.77;87.48
77118;BME280;66072;50.238;19.228;2023-04-02T08:29:13;97957.16;;;4.85;87.05
77118;BME280;66072;50.238;19.228;2023-04-02T08:31:40;97961.96;;;4.94;86.82
77118;BME280;66072;50.238;19.228;2023-04-02T08:34:08;97964.70;;;4.93;86.54
77118;BME280;66072;50.238;19.228;2023-04-02T08:36:38;97969.95;;;4.88;86.80
77118;BME280;66072;50.238;19.228;2023-04-02T08:39:06;97977.57;;;4.77;86.20
77118;BME280;66072;50.238;19.228;2023-04-02T08:41:37;97980.66;;;4.70;86.23
77118;BME280;66072;50.238;19.228;2023-04-02T08:47:02;97991.41;;;4.73;85.53
77118;BME280;66072;50.238;19.228;2023-04-02T08:49:47;97993.17;;;4.71;84.78
77118;BME280;66072;50.238;19.228;2023-04-02T08:52:22;97997.71;;;4.77;84.36
77118;BME280;66072;50.238;19.228;2023-04-02T08:54:51;97999.71;;;4.79;84.33
77118;BME280;66072;50.238;19.228;2023-04-02T09:00:25;98008.31;;;4.80;83.86
77118;BME280;66072;50.238;19.228;2023-04-02T09:03:08;98013.80;;;4.77;84.13
77118;BME280;66072;50.238;19.228;2023-04-02T09:05:39;98016.80;;;4.73;83.82
77118;BME280;66072;50.238;19.228;2023-04-02T09:08:18;98019.04;;;4.61;84.18
77118;BME280;66072;50.238;19.228;2023-04-02T09:11:08;98022.95;;;4.55;84.59
77118;BME280;66072;50.238;19.228;2023-04-02T09:13:44;98026.75;;;4.47;85.09
77118;BME280;66072;50.238;19.228;2023-04-02T09:16:15;98028.20;;;4.44;85.02
77118;BME280;66072;50.238;19.228;2023-04-02T09:18:44;98037.63;;;4.40;84.28
77118;BME280;66072;50.238;19.228;2023-04-02T09:23:48;98042.46;;;4.42;83.88
77118;BME280;66072;50.238;19.228;2023-04-02T09:26:20;98046.98;;;4.44;84.23
77118;BME280;66072;50.238;19.228;2023-04-02T09:29:00;98050.19;;;4.50;84.53
77118;BME280;66072;50.238;19.228;2023-04-02T09:31:49;98055.55;;;4.52;84.67
77118;BME280;66072;50.238;19.228;2023-04-02T09:34:33;98061.94;;;4.54;84.30
77118;BME280;66072;50.238;19.228;2023-04-02T09:37:27;98065.37;;;4.52;84.56
77118;BME280;66072;50.238;19.228;2023-04-02T09:40:12;98069.88;;;4.54;84.56
77118;BME280;66072;50.238;19.228;2023-04-02T09:42:42;98072.11;;;4.53;84.65
77118;BME280;66072;50.238;19.228;2023-04-02T09:45:23;98078.68;;;4.61;84.87
77118;BME280;66072;50.238;19.228;2023-04-02T09:47:52;98083.55;;;4.68;84.49
77118;BME280;66072;50.238;19.228;2023-04-02T09:50:28;98086.90;;;4.69;84.62
77118;BME280;66072;50.238;19.228;2023-04-02T09:52:56;98085.52;;;4.76;84.12
77118;BME280;66072;50.238;19.228;2023-04-02T09:55:28;98087.70;;;4.82;84.07
77118;BME280;66072;50.238;19.228;2023-04-02T09:58:15;98093.93;;;4.89;84.00
77118;BME280;66072;50.238;19.228;2023-04-02T10:00:50;98096.59;;;4.97;83.93
77118;BME280;66072;50.238;19.228;2023-04-02T10:03:30;98102.73;;;5.07;84.24
77118;BME280;66072;50.238;19.228;2023-04-02T10:06:07;98108.27;;;5.14;84.17
77118;BME280;66072;50.238;19.228;2023-04-02T10:08:36;98107.32;;;5.12;84.03
77118;BME280;66072;50.238;19.228;2023-04-02T10:11:10;98110.16;;;5.08;83.98
77118;BME280;66072;50.238;19.228;2023-04-02T10:13:51;98111.27;;;4.99;83.84
77118;BME280;66072;50.238;19.228;2023-04-02T10:16:24;98118.13;;;4.91;83.44
77118;BME280;66072;50.238;19.228;2023-04-02T10:21:30;98134.27;;;4.66;83.78
77118;BME280;66072;50.238;19.228;2023-04-02T10:23:58;98137.95;;;4.61;84.39
77118;BME280;66072;50.238;19.228;2023-04-02T10:29:29;98144.64;;;4.46;84.98
77118;BME280;66072;50.238;19.228;2023-04-02T10:32:41;98145.18;;;4.38;85.33
77118;BME280;66072;50.238;19.228;2023-04-02T10:38:06;98152.38;;;4.16;85.42
77118;BME280;66072;50.238;19.228;2023-04-02T10:43:42;98168.16;;;4.14;85.79
77118;BME280;66072;50.238;19.228;2023-04-02T10:55:19;98181.02;;;4.27;85.98
77118;BME280;66072;50.238;19.228;2023-04-02T10:57:50;98184.92;;;4.27;85.36
77118;BME280;66072;50.238;19.228;2023-04-02T11:00:23;98184.77;;;4.20;85.35
77118;BME280;66072;50.238;19.228;2023-04-02T11:03:04;98184.38;;;4.15;85.40
77118;BME280;66072;50.238;19.228;2023-04-02T11:05:45;98189.10;;;4.15;85.65
77118;BME280;66072;50.238;19.228;2023-04-02T11:08:23;98188.80;;;4.21;85.45
77118;BME280;66072;50.238;19.228;2023-04-02T11:11:42;98190.88;;;4.25;85.18
77118;BME280;66072;50.238;19.228;2023-04-02T11:16:23;98200.52;;;4.46;85.26
77118;BME280;66072;50.238;19.228;2023-04-02T11:21:50;98209.09;;;4.61;84.86
77118;BME280;66072;50.238;19.228;2023-04-02T11:42:40;98236.91;;;4.72;83.42
77118;BME280;66072;50.238;19.228;2023-04-02T11:50:34;98239.69;;;4.51;83.61
77118;BME280;66072;50.238;19.228;2023-04-02T11:55:45;98244.70;;;4.46;83.44
77118;BME280;66072;50.238;19.228;2023-04-02T12:04:06;98252.06;;;4.43;83.74
77118;BME280;66072;50.238;19.228;2023-04-02T12:09:29;98256.35;;;4.67;82.94
77118;BME280;66072;50.238;19.228;2023-04-02T12:12:16;98258.59;;;4.72;82.74
77118;BME280;66072;50.238;19.228;2023-04-02T12:14:46;98261.02;;;4.63;82.56
77118;BME280;66072;50.238;19.228;2023-04-02T12:19:53;98264.65;;;4.48;84.03
77118;BME280;66072;50.238;19.228;2023-04-02T12:22:24;98271.54;;;4.50;82.82
77118;BME280;66072;50.238;19.228;2023-04-02T12:24:57;98271.09;;;4.54;82.55
77118;BME280;66072;50.238;19.228;2023-04-02T12:27:27;98269.67;;;4.70;82.67
77118;BME280;66072;50.238;19.228;2023-04-02T12:30:30;98270.05;;;4.87;82.51
77118;BME280;66072;50.238;19.228;2023-04-02T12:33:13;98273.98;;;5.05;82.20
77118;BME280;66072;50.238;19.228;2023-04-02T12:35:42;98278.76;;;5.16;82.53
77118;BME280;66072;50.238;19.228;2023-04-02T12:38:19;98284.54;;;5.16;81.66
77118;BME280;66072;50.238;19.228;2023-04-02T12:40:51;98287.52;;;5.06;81.97
77118;BME280;66072;50.238;19.228;2023-04-02T12:43:30;98287.41;;;4.98;81.55
77118;BME280;66072;50.238;19.228;2023-04-02T12:46:01;98289.89;;;4.80;81.22
77118;BME280;66072;50.238;19.228;2023-04-02T12:48:29;98289.58;;;4.60;81.25
77118;BME280;66072;50.238;19.228;2023-04-02T12:50:58;98286.29;;;4.35;81.82
77118;BME280;66072;50.238;19.228;2023-04-02T12:53:34;98294.94;;;4.20;82.46
77118;BME280;66072;50.238;19.228;2023-04-02T12:56:03;98295.98;;;4.12;83.25
77118;BME280;66072;50.238;19.228;2023-04-02T12:58:41;98299.54;;;4.12;83.50
77118;BME280;66072;50.238;19.228;2023-04-02T13:01:14;98302.88;;;4.20;83.42
77118;BME280;66072;50.238;19.228;2023-04-02T13:03:43;98304.79;;;4.33;82.79
77118;BME280;66072;50.238;19.228;2023-04-02T13:06:20;98306.61;;;4.49;82.92
77118;BME280;66072;50.238;19.228;2023-04-02T13:08:49;98307.25;;;4.50;82.79
77118;BME280;66072;50.238;19.228;2023-04-02T13:11:20;98311.54;;;4.49;82.64
77118;BME280;66072;50.238;19.228;2023-04-02T13:13:49;98317.30;;;4.48;82.81
77118;BME280;66072;50.238;19.228;2023-04-02T13:18:47;98322.89;;;4.48;82.61
77118;BME280;66072;50.238;19.228;2023-04-02T13:23:44;98325.46;;;4.40;82.10
77118;BME280;66072;50.238;19.228;2023-04-02T13:26:24;98334.14;;;4.38;82.33
77118;BME280;66072;50.238;19.228;2023-04-02T13:31:31;98333.55;;;4.26;82.71
77118;BME280;66072;50.238;19.228;2023-04-02T13:33:59;98337.24;;;4.21;82.93
77118;BME280;66072;50.238;19.228;2023-04-02T13:36:28;98341.38;;;4.18;83.08
77118;BME280;66072;50.238;19.228;2023-04-02T13:38:58;98346.14;;;4.17;83.18
77118;BME280;66072;50.238;19.228;2023-04-02T13:41:30;98348.02;;;4.16;83.55
77118;BME280;66072;50.238;19.228;2023-04-02T13:44:01;98350.96;;;4.13;83.86
77118;BME280;66072;50.238;19.228;2023-04-02T13:46:32;98350.22;;;4.09;83.89
77118;BME280;66072;50.238;19.228;2023-04-02T13:49:00;98351.45;;;4.07;84.23
77118;BME280;66072;50.238;19.228;2023-04-02T13:51:41;98353.21;;;4.03;84.39
77118;BME280;66072;50.238;19.228;2023-04-02T13:54:15;98359.53;;;4.01;83.96
77118;BME280;66072;50.238;19.228;2023-04-02T13:56:45;98361.65;;;4.12;83.93
77118;BME280;66072;50.238;19.228;2023-04-02T13:59:16;98360.52;;;4.32;83.53
77118;BME280;66072;50.238;19.228;2023-04-02T14:01:46;98360.02;;;4.32;82.95
77118;BME280;66072;50.238;19.228;2023-04-02T14:04:19;98368.86;;;4.22;82.67
77118;BME280;66072;50.238;19.228;2023-04-02T14:24:04;98389.56;;;4.12;82.15
77118;BME280;66072;50.238;19.228;2023-04-02T14:26:38;98391.56;;;4.07;82.58
77118;BME280;66072;50.238;19.228;2023-04-02T14:32:05;98396.60;;;4.00;82.86
77118;BME280;66072;50.238;19.228;2023-04-02T14:34:54;98398.39;;;3.96;82.78
77118;BME280;66072;50.238;19.228;2023-04-02T14:37:51;98403.75;;;3.90;82.77
77118;BME280;66072;50.238;19.228;2023-04-02T14:40:43;98408.23;;;3.86;83.05
77118;BME280;66072;50.238;19.228;2023-04-02T14:43:24;98410.55;;;3.81;82.99
77118;BME280;66072;50.238;19.228;2023-04-02T14:46:02;98408.75;;;3.77;82.97
77118;BME280;66072;50.238;19.228;2023-04-02T14:48:50;98412.20;;;3.74;82.77
77118;BME280;66072;50.238;19.228;2023-04-02T14:54:33;98419.34;;;3.71;82.50
77118;BME280;66072;50.238;19.228;2023-04-02T14:57:23;98421.96;;;3.67;83.10
77118;BME280;66072;50.238;19.228;2023-04-02T15:00:01;98419.61;;;3.67;83.13
77118;BME280;66072;50.238;19.228;2023-04-02T15:05:21;98426.19;;;3.68;83.26
77118;BME280;66072;50.238;19.228;2023-04-02T15:07:56;98430.22;;;3.69;82.97
77118;BME280;66072;50.238;19.228;2023-04-02T15:10:33;98431.23;;;3.69;82.99
77118;BME280;66072;50.238;19.228;2023-04-02T15:13:07;98431.40;;;3.69;83.27
77118;BME280;66072;50.238;19.228;2023-04-02T15:18:14;98435.49;;;3.68;82.24
77118;BME280;66072;50.238;19.228;2023-04-02T15:23:48;98451.08;;;3.58;82.67
77118;BME280;66072;50.238;19.228;2023-04-02T15:31:20;98459.79;;;3.53;82.35
77118;BME280;66072;50.238;19.228;2023-04-02T15:34:23;98462.88;;;3.51;82.61
77118;BME280;66072;50.238;19.228;2023-04-02T15:39:40;98473.38;;;3.49;82.48
77118;BME280;66072;50.238;19.228;2023-04-02T15:42:15;98477.36;;;3.45;82.67
77118;BME280;66072;50.238;19.228;2023-04-02T15:53:26;98490.00;;;3.84;80.35
77118;BME280;66072;50.238;19.228;2023-04-02T15:56:21;98489.92;;;3.88;80.06
77118;BME280;66072;50.238;19.228;2023-04-02T16:07:33;98501.70;;;3.82;80.24
77118;BME280;66072;50.238;19.228;2023-04-02T16:12:37;98504.59;;;3.72;79.84
77118;BME280;66072;50.238;19.228;2023-04-02T16:15:29;98509.21;;;3.69;80.01
77118;BME280;66072;50.238;19.228;2023-04-02T16:18:05;98516.19;;;3.66;80.38
77118;BME280;66072;50.238;19.228;2023-04-02T16:20:38;98520.48;;;3.63;80.46
77118;BME280;66072;50.238;19.228;2023-04-02T16:23:12;98521.77;;;3.57;80.65
77118;BME280;66072;50.238;19.228;2023-04-02T16:25:51;98528.20;;;3.47;80.88
77118;BME280;66072;50.238;19.228;2023-04-02T16:28:26;98529.17;;;3.39;81.06
77118;BME280;66072;50.238;19.228;2023-04-02T16:34:10;98538.14;;;3.29;81.31
77118;BME280;66072;50.238;19.228;2023-04-02T16:36:50;98537.70;;;3.24;81.38
77118;BME280;66072;50.238;19.228;2023-04-02T16:39:41;98544.15;;;3.22;81.73
77118;BME280;66072;50.238;19.228;2023-04-02T16:53:49;98559.09;;;3.07;82.47
77118;BME280;66072;50.238;19.228;2023-04-02T17:00:47;98569.05;;;2.95;82.43
77118;BME280;66072;50.238;19.228;2023-04-02T17:03:16;98573.67;;;2.91;82.35
77118;BME280;66072;50.238;19.228;2023-04-02T17:14:43;98586.05;;;2.76;82.13
77118;BME280;66072;50.238;19.228;2023-04-02T17:17:14;98587.77;;;2.74;82.40
77118;BME280;66072;50.238;19.228;2023-04-02T17:19:43;98589.65;;;2.72;82.45
77118;BME280;66072;50.238;19.228;2023-04-02T17:22:17;98591.02;;;2.71;82.41
77118;BME280;66072;50.238;19.228;2023-04-02T17:24:50;98598.96;;;2.69;82.56